createdAt,value
2017-07-05T00:00:47.615Z,1016.52
2017-07-05T00:01:48.261Z,1016.50
2017-07-05T00:02:48.905Z,1016.50
2017-07-05T00:03:49.547Z,1016.52
2017-07-05T00:04:50.192Z,1016.43
2017-07-05T00:05:50.989Z,1016.51
2017-07-05T00:06:51.636Z,1016.45
2017-07-05T00:07:52.277Z,1016.46
2017-07-05T00:08:52.920Z,1016.46
2017-07-05T00:09:53.566Z,1016.42
2017-07-05T00:10:54.215Z,1016.41
2017-07-05T00:11:54.857Z,1016.45
2017-07-05T00:12:55.500Z,1016.44
2017-07-05T00:13:56.142Z,1016.38
2017-07-05T00:14:56.985Z,1016.40
2017-07-05T00:15:57.631Z,1016.44
2017-07-05T00:16:58.275Z,1016.46
2017-07-05T00:17:58.923Z,1016.42
2017-07-05T00:18:59.564Z,1016.36
2017-07-05T00:20:00.208Z,1016.45
2017-07-05T00:21:00.850Z,1016.45
2017-07-05T00:22:01.496Z,1016.42
2017-07-05T00:23:02.391Z,1016.53
2017-07-05T00:24:03.035Z,1016.45
2017-07-05T00:25:03.679Z,1016.44
2017-07-05T00:26:04.324Z,1016.32
2017-07-05T00:27:04.967Z,1016.40
2017-07-05T00:28:05.608Z,1016.40
2017-07-05T00:29:06.251Z,1016.39
2017-07-05T00:30:06.895Z,1016.35
2017-07-05T00:31:07.737Z,1016.39
2017-07-05T00:32:08.386Z,1016.42
2017-07-05T00:33:09.027Z,1016.42
2017-07-05T00:34:09.669Z,1016.44
2017-07-05T00:35:10.313Z,1016.41
2017-07-05T00:36:10.956Z,1016.37
2017-07-05T00:37:11.601Z,1016.33
2017-07-05T00:38:12.243Z,1016.36
2017-07-05T00:39:13.190Z,1016.32
2017-07-05T00:40:13.835Z,1016.36
2017-07-05T00:41:14.479Z,1016.34
2017-07-05T00:42:15.123Z,1016.34
2017-07-05T00:43:15.814Z,1016.33
2017-07-05T00:44:16.460Z,1016.36
2017-07-05T00:45:17.103Z,1016.36
2017-07-05T00:46:17.747Z,1016.33
2017-07-05T00:47:18.388Z,1016.29
2017-07-05T00:48:19.182Z,1016.38
2017-07-05T00:49:19.825Z,1016.29
2017-07-05T00:50:20.469Z,1016.35
2017-07-05T00:51:21.111Z,1016.29
2017-07-05T00:52:21.755Z,1016.35
2017-07-05T00:53:22.411Z,1016.34
2017-07-05T00:54:23.044Z,1016.28
2017-07-05T00:55:23.691Z,1016.30
2017-07-05T00:56:24.534Z,1016.31
2017-07-05T00:57:25.179Z,1016.31
2017-07-05T00:58:25.820Z,1016.34
2017-07-05T00:59:26.464Z,1016.26
2017-07-05T01:00:27.109Z,1016.31
2017-07-05T01:01:27.754Z,1016.30
2017-07-05T01:02:28.399Z,1016.29
2017-07-05T01:03:29.039Z,1016.17
2017-07-05T01:04:29.832Z,1016.20
2017-07-05T01:05:30.477Z,1016.21
2017-07-05T01:06:31.119Z,1016.26
2017-07-05T01:07:31.765Z,1016.19
2017-07-05T01:08:32.405Z,1016.26
2017-07-05T01:09:33.051Z,1016.23
2017-07-05T01:10:33.694Z,1016.17
2017-07-05T01:11:34.336Z,1016.14
2017-07-05T01:12:35.233Z,1016.19
2017-07-05T01:13:35.877Z,1016.18
2017-07-05T01:14:36.520Z,1016.09
2017-07-05T01:15:37.162Z,1016.17
2017-07-05T01:16:37.805Z,1016.19
2017-07-05T01:17:38.449Z,1016.07
2017-07-05T01:18:39.100Z,1016.12
2017-07-05T01:19:39.739Z,1016.23
2017-07-05T01:20:40.582Z,1016.02
2017-07-05T01:21:41.236Z,1016.10
2017-07-05T01:22:41.872Z,1016.12
2017-07-05T01:23:42.517Z,1016.12
2017-07-05T01:24:43.157Z,1016.10
2017-07-05T01:25:43.800Z,1016.12
2017-07-05T01:26:44.448Z,1016.04
2017-07-05T01:27:45.092Z,1016.05
2017-07-05T01:28:45.739Z,1016.09
2017-07-05T01:29:46.533Z,1016.02
2017-07-05T01:30:47.178Z,1016.07
2017-07-05T01:31:47.818Z,1016.09
2017-07-05T01:32:48.463Z,1016.07
2017-07-05T01:33:49.108Z,1016.02
2017-07-05T01:34:49.755Z,1016.03
2017-07-05T01:35:50.392Z,1016.06
2017-07-05T01:36:51.036Z,1016.05
2017-07-05T01:37:51.880Z,1016.01
2017-07-05T01:38:52.525Z,1016.01
2017-07-05T01:39:53.169Z,1015.99
2017-07-05T01:40:53.811Z,1016.00
2017-07-05T01:41:54.457Z,1016.04
2017-07-05T01:42:55.099Z,1016.00
2017-07-05T01:43:55.742Z,1016.01
2017-07-05T01:44:56.385Z,1015.98
2017-07-05T01:45:57.179Z,1016.00
2017-07-05T01:46:57.822Z,1016.03
2017-07-05T01:47:58.468Z,1015.94
2017-07-05T01:48:59.112Z,1015.94
2017-07-05T01:49:59.755Z,1015.99
2017-07-05T01:51:00.399Z,1015.93
2017-07-05T01:52:01.046Z,1016.02
2017-07-05T01:53:01.691Z,1015.99
2017-07-05T01:54:03.135Z,1015.99
2017-07-05T01:55:03.779Z,1015.99
2017-07-05T01:56:04.481Z,1016.00
2017-07-05T01:57:05.122Z,1016.01
2017-07-05T01:58:05.766Z,1015.95
2017-07-05T01:59:06.410Z,1015.98
2017-07-05T02:00:07.051Z,1015.94
2017-07-05T02:01:07.696Z,1015.99
2017-07-05T02:02:08.343Z,1016.03
2017-07-05T02:03:09.293Z,1016.04
2017-07-05T02:04:09.934Z,1015.92
2017-07-05T02:05:10.575Z,1015.98
2017-07-05T02:06:11.220Z,1015.96
2017-07-05T02:07:11.862Z,1015.97
2017-07-05T02:08:12.507Z,1016.01
2017-07-05T02:09:13.148Z,1015.97
2017-07-05T02:10:13.795Z,1015.89
2017-07-05T02:11:14.738Z,1015.88
2017-07-05T02:12:15.382Z,1015.93
2017-07-05T02:13:16.027Z,1015.85
2017-07-05T02:14:16.669Z,1015.87
2017-07-05T02:15:17.312Z,1015.93
2017-07-05T02:16:17.974Z,1015.90
2017-07-05T02:17:18.602Z,1015.84
2017-07-05T02:18:19.243Z,1015.93
2017-07-05T02:19:20.088Z,1015.96
2017-07-05T02:20:20.732Z,1015.93
2017-07-05T02:21:21.373Z,1015.87
2017-07-05T02:22:22.016Z,1015.88
2017-07-05T02:23:22.663Z,1015.93
2017-07-05T02:24:23.306Z,1015.92
2017-07-05T02:25:23.950Z,1015.85
2017-07-05T02:26:24.594Z,1015.85
2017-07-05T02:27:25.439Z,1015.88
2017-07-05T02:28:26.085Z,1015.89
2017-07-05T02:29:26.728Z,1015.85
2017-07-05T02:30:27.372Z,1015.85
2017-07-05T02:31:28.012Z,1015.89
2017-07-05T02:32:28.659Z,1015.84
2017-07-05T02:33:29.304Z,1015.84
2017-07-05T02:34:29.950Z,1015.77
2017-07-05T02:35:30.592Z,1015.85
2017-07-05T02:36:31.440Z,1015.86
2017-07-05T02:37:32.079Z,1015.78
2017-07-05T02:38:32.724Z,1015.83
2017-07-05T02:39:33.369Z,1015.83
2017-07-05T02:40:34.013Z,1015.83
2017-07-05T02:41:34.658Z,1015.86
2017-07-05T02:42:35.301Z,1015.83
2017-07-05T02:43:35.943Z,1015.87
2017-07-05T02:44:36.788Z,1015.86
2017-07-05T02:45:37.432Z,1015.87
2017-07-05T02:46:38.076Z,1015.85
2017-07-05T02:47:38.722Z,1015.90
2017-07-05T02:48:39.314Z,1015.81
2017-07-05T02:49:39.957Z,1015.90
2017-07-05T02:50:40.601Z,1015.87
2017-07-05T02:51:41.246Z,1015.86
2017-07-05T02:52:42.040Z,1015.81
2017-07-05T02:53:42.682Z,1015.79
2017-07-05T02:54:43.326Z,1015.79
2017-07-05T02:55:43.970Z,1015.75
2017-07-05T02:56:44.613Z,1015.88
2017-07-05T02:57:45.257Z,1015.83
2017-07-05T02:58:45.901Z,1015.91
2017-07-05T02:59:46.546Z,1015.79
2017-07-05T03:00:47.391Z,1015.78
2017-07-05T03:01:48.036Z,1015.84
2017-07-05T03:02:48.678Z,1015.78
2017-07-05T03:03:49.322Z,1015.81
2017-07-05T03:04:49.966Z,1015.81
2017-07-05T03:05:50.613Z,1015.80
2017-07-05T03:06:51.258Z,1015.79
2017-07-05T03:07:51.900Z,1015.87
2017-07-05T03:08:52.747Z,1015.83
2017-07-05T03:09:53.387Z,1015.81
2017-07-05T03:10:54.030Z,1015.80
2017-07-05T03:11:54.676Z,1015.78
2017-07-05T03:12:55.321Z,1015.73
2017-07-05T03:13:55.965Z,1015.83
2017-07-05T03:14:56.606Z,1015.74
2017-07-05T03:15:57.249Z,1015.79
2017-07-05T03:16:57.892Z,1015.76
2017-07-05T03:17:58.737Z,1015.81
2017-07-05T03:18:59.378Z,1015.73
2017-07-05T03:20:00.021Z,1015.79
2017-07-05T03:21:00.663Z,1015.70
2017-07-05T03:22:01.307Z,1015.81
2017-07-05T03:23:01.949Z,1015.75
2017-07-05T03:24:02.595Z,1015.70
2017-07-05T03:25:03.238Z,1015.72
2017-07-05T03:26:04.083Z,1015.67
2017-07-05T03:27:04.728Z,1015.71
2017-07-05T03:28:05.370Z,1015.68
2017-07-05T03:29:06.013Z,1015.70
2017-07-05T03:30:06.658Z,1015.72
2017-07-05T03:31:07.303Z,1015.64
2017-07-05T03:32:07.946Z,1015.70
2017-07-05T03:33:08.592Z,1015.64
2017-07-05T03:34:09.436Z,1015.64
2017-07-05T03:35:10.079Z,1015.72
2017-07-05T03:36:10.723Z,1015.64
2017-07-05T03:37:11.368Z,1015.70
2017-07-05T03:38:12.068Z,1015.63
2017-07-05T03:39:12.711Z,1015.65
2017-07-05T03:40:13.357Z,1015.69
2017-07-05T03:41:14.000Z,1015.62
2017-07-05T03:42:14.844Z,1015.65
2017-07-05T03:43:15.490Z,1015.65
2017-07-05T03:44:16.134Z,1015.65
2017-07-05T03:45:16.780Z,1015.67
2017-07-05T03:46:17.420Z,1015.66
2017-07-05T03:47:18.063Z,1015.58
2017-07-05T03:48:18.709Z,1015.63
2017-07-05T03:49:19.356Z,1015.66
2017-07-05T03:50:19.996Z,1015.57
2017-07-05T03:51:20.790Z,1015.62
2017-07-05T03:52:21.437Z,1015.60
2017-07-05T03:53:22.081Z,1015.65
2017-07-05T03:54:22.725Z,1015.66
2017-07-05T03:55:23.368Z,1015.60
2017-07-05T03:56:24.012Z,1015.64
2017-07-05T03:57:24.656Z,1015.56
2017-07-05T03:58:25.304Z,1015.61
2017-07-05T03:59:26.143Z,1015.62
2017-07-05T04:00:26.791Z,1015.62
2017-07-05T04:01:27.432Z,1015.64
2017-07-05T04:02:28.074Z,1015.57
2017-07-05T04:03:28.717Z,1015.62
2017-07-05T04:04:29.360Z,1015.58
2017-07-05T04:05:30.004Z,1015.59
2017-07-05T04:06:30.647Z,1015.61
2017-07-05T04:07:31.492Z,1015.61
2017-07-05T04:08:32.135Z,1015.54
2017-07-05T04:09:32.777Z,1015.60
2017-07-05T04:10:33.421Z,1015.63
2017-07-05T04:11:34.065Z,1015.65
2017-07-05T04:12:34.707Z,1015.62
2017-07-05T04:13:35.353Z,1015.59
2017-07-05T04:14:35.998Z,1015.65
2017-07-05T04:15:36.844Z,1015.60
2017-07-05T04:16:37.486Z,1015.63
2017-07-05T04:17:38.136Z,1015.72
2017-07-05T04:18:38.772Z,1015.66
2017-07-05T04:19:39.418Z,1015.68
2017-07-05T04:20:40.061Z,1015.62
2017-07-05T04:21:40.705Z,1015.66
2017-07-05T04:22:41.348Z,1015.65
2017-07-05T04:23:42.140Z,1015.65
2017-07-05T04:24:42.786Z,1015.67
2017-07-05T04:25:43.432Z,1015.66
2017-07-05T04:26:44.076Z,1015.65
2017-07-05T04:27:44.718Z,1015.66
2017-07-05T04:28:45.360Z,1015.68
2017-07-05T04:29:46.006Z,1015.65
2017-07-05T04:30:46.648Z,1015.73
2017-07-05T04:31:47.291Z,1015.70
2017-07-05T04:32:48.385Z,1015.67
2017-07-05T04:33:49.030Z,1015.69
2017-07-05T04:34:49.673Z,1015.74
2017-07-05T04:35:50.316Z,1015.63
2017-07-05T04:36:50.964Z,1015.69
2017-07-05T04:37:51.603Z,1015.69
2017-07-05T04:38:52.247Z,1015.71
2017-07-05T04:39:52.891Z,1015.73
2017-07-05T04:40:53.738Z,1015.67
2017-07-05T04:41:54.394Z,1015.73
2017-07-05T04:42:55.035Z,1015.75
2017-07-05T04:43:55.677Z,1015.73
2017-07-05T04:44:56.321Z,1015.78
2017-07-05T04:45:56.963Z,1015.72
2017-07-05T04:46:57.607Z,1015.74
2017-07-05T04:47:58.254Z,1015.70
2017-07-05T04:48:59.198Z,1015.73
2017-07-05T04:49:59.844Z,1015.81
2017-07-05T04:51:00.485Z,1015.69
2017-07-05T04:52:01.127Z,1015.86
2017-07-05T04:53:01.773Z,1015.73
2017-07-05T04:54:02.416Z,1015.78
2017-07-05T04:55:03.061Z,1015.78
2017-07-05T04:56:03.705Z,1015.78
2017-07-05T04:57:04.548Z,1015.83
2017-07-05T04:58:05.191Z,1015.75
2017-07-05T04:59:05.835Z,1015.66
2017-07-05T05:00:06.479Z,1015.67
2017-07-05T05:01:07.121Z,1015.73
2017-07-05T05:02:07.766Z,1015.80
2017-07-05T05:03:08.412Z,1015.79
2017-07-05T05:04:09.055Z,1015.78
2017-07-05T05:05:09.705Z,1015.76
2017-07-05T05:06:10.542Z,1015.67
2017-07-05T05:07:11.188Z,1015.82
2017-07-05T05:08:11.832Z,1015.85
2017-07-05T05:09:12.475Z,1015.81
2017-07-05T05:10:13.118Z,1015.78
2017-07-05T05:11:13.765Z,1015.80
2017-07-05T05:12:14.409Z,1015.81
2017-07-05T05:13:15.053Z,1015.75
2017-07-05T05:14:15.899Z,1015.80
2017-07-05T05:15:16.598Z,1015.75
2017-07-05T05:16:17.241Z,1015.81
2017-07-05T05:17:17.886Z,1015.78
2017-07-05T05:18:18.530Z,1015.84
2017-07-05T05:19:19.179Z,1015.91
2017-07-05T05:20:19.818Z,1015.92
2017-07-05T05:21:20.462Z,1015.91
2017-07-05T05:22:21.256Z,1015.91
2017-07-05T05:23:21.902Z,1015.91
2017-07-05T05:24:22.545Z,1015.96
2017-07-05T05:25:23.190Z,1015.97
2017-07-05T05:26:23.834Z,1015.91
2017-07-05T05:27:24.481Z,1015.90
2017-07-05T05:28:25.125Z,1015.91
2017-07-05T05:29:25.766Z,1015.89
2017-07-05T05:30:26.859Z,1015.91
2017-07-05T05:31:27.507Z,1015.96
2017-07-05T05:32:28.151Z,1015.97
2017-07-05T05:33:28.804Z,1015.91
2017-07-05T05:34:29.441Z,1015.96
2017-07-05T05:35:30.081Z,1015.94
2017-07-05T05:36:30.728Z,1015.94
2017-07-05T05:37:31.368Z,1015.94
2017-07-05T05:38:32.161Z,1015.91
2017-07-05T05:39:32.806Z,1015.98
2017-07-05T05:40:33.448Z,1015.99
2017-07-05T05:41:34.093Z,1015.94
2017-07-05T05:42:34.735Z,1015.96
2017-07-05T05:43:35.378Z,1015.96
2017-07-05T05:44:36.022Z,1015.93
2017-07-05T05:45:36.668Z,1015.94
2017-07-05T05:46:37.312Z,1015.94
2017-07-05T05:47:38.155Z,1015.91
2017-07-05T05:48:38.798Z,1015.96
2017-07-05T05:49:39.441Z,1015.89
2017-07-05T05:50:40.084Z,1015.91
2017-07-05T05:51:40.731Z,1015.92
2017-07-05T05:52:41.375Z,1015.91
2017-07-05T05:53:42.019Z,1015.90
2017-07-05T05:54:42.662Z,1015.96
2017-07-05T05:55:43.604Z,1015.96
2017-07-05T05:56:44.304Z,1015.96
2017-07-05T05:57:44.949Z,1015.95
2017-07-05T05:58:45.591Z,1015.95
2017-07-05T05:59:46.236Z,1016.01
2017-07-05T06:00:46.878Z,1016.00
2017-07-05T06:01:47.520Z,1016.00
2017-07-05T06:02:48.164Z,1015.99
2017-07-05T06:03:48.961Z,1015.97
2017-07-05T06:04:49.603Z,1015.99
2017-07-05T06:05:50.248Z,1016.00
2017-07-05T06:06:50.891Z,1016.07
2017-07-05T06:07:51.534Z,1016.05
2017-07-05T06:08:52.179Z,1016.05
2017-07-05T06:09:52.823Z,1016.03
2017-07-05T06:10:53.469Z,1016.06
2017-07-05T06:11:54.310Z,1016.10
2017-07-05T06:12:54.955Z,1016.05
2017-07-05T06:13:55.599Z,1016.05
2017-07-05T06:14:56.243Z,1016.09
2017-07-05T06:15:56.887Z,1016.09
2017-07-05T06:16:57.531Z,1016.12
2017-07-05T06:17:58.173Z,1016.13
2017-07-05T06:18:58.815Z,1016.17
2017-07-05T06:19:59.463Z,1016.10
2017-07-05T06:21:00.355Z,1016.10
2017-07-05T06:22:00.999Z,1016.16
2017-07-05T06:23:01.645Z,1016.14
2017-07-05T06:24:02.291Z,1016.15
2017-07-05T06:25:02.938Z,1016.11
2017-07-05T06:26:03.580Z,1016.16
2017-07-05T06:27:04.221Z,1016.11
2017-07-05T06:28:04.864Z,1016.05
2017-07-05T06:29:05.709Z,1016.11
2017-07-05T06:30:06.353Z,1016.14
2017-07-05T06:31:06.996Z,1016.15
2017-07-05T06:32:07.641Z,1016.15
2017-07-05T06:33:08.284Z,1016.13
2017-07-05T06:34:08.926Z,1016.10
2017-07-05T06:35:09.571Z,1016.11
2017-07-05T06:36:10.220Z,1016.10
2017-07-05T06:37:11.060Z,1016.09
2017-07-05T06:38:11.706Z,1016.17
2017-07-05T06:39:12.343Z,1016.19
2017-07-05T06:40:12.984Z,1016.16
2017-07-05T06:41:13.629Z,1016.16
2017-07-05T06:42:14.271Z,1016.25
2017-07-05T06:43:14.916Z,1016.19
2017-07-05T06:44:15.561Z,1016.29
2017-07-05T06:45:16.407Z,1016.20
2017-07-05T06:46:17.051Z,1016.20
2017-07-05T06:47:17.695Z,1016.24
2017-07-05T06:48:18.339Z,1016.25
2017-07-05T06:49:18.983Z,1016.19
2017-07-05T06:50:19.627Z,1016.18
2017-07-05T06:51:20.276Z,1016.22
2017-07-05T06:52:20.917Z,1016.20
2017-07-05T06:53:21.763Z,1016.20
2017-07-05T06:54:22.405Z,1016.20
2017-07-05T06:55:23.051Z,1016.20
2017-07-05T06:56:23.692Z,1016.26
2017-07-05T06:57:24.338Z,1016.22
2017-07-05T06:58:24.981Z,1016.27
2017-07-05T06:59:25.625Z,1016.18
2017-07-05T07:00:26.271Z,1016.25
2017-07-05T07:01:26.916Z,1016.22
2017-07-05T07:02:27.706Z,1016.27
2017-07-05T07:03:28.351Z,1016.23
2017-07-05T07:04:28.998Z,1016.34
2017-07-05T07:05:29.641Z,1016.31
2017-07-05T07:06:30.286Z,1016.31
2017-07-05T07:07:30.927Z,1016.31
2017-07-05T07:08:31.571Z,1016.33
2017-07-05T07:09:32.213Z,1016.37
2017-07-05T07:10:33.057Z,1016.32
2017-07-05T07:11:33.701Z,1016.40
2017-07-05T07:12:34.347Z,1016.41
2017-07-05T07:13:34.990Z,1016.41
2017-07-05T07:14:35.630Z,1016.39
2017-07-05T07:15:36.276Z,1016.49
2017-07-05T07:16:36.921Z,1016.47
2017-07-05T07:17:37.563Z,1016.47
2017-07-05T07:18:38.357Z,1016.43
2017-07-05T07:19:39.000Z,1016.47
2017-07-05T07:20:39.643Z,1016.63
2017-07-05T07:21:40.286Z,1016.61
2017-07-05T07:22:40.931Z,1016.60
2017-07-05T07:23:41.578Z,1016.66
2017-07-05T07:24:42.220Z,1016.61
2017-07-05T07:25:42.864Z,1016.63
2017-07-05T07:26:43.706Z,1016.64
2017-07-05T07:27:44.348Z,1016.66
2017-07-05T07:28:44.992Z,1016.67
2017-07-05T07:29:45.640Z,1016.64
2017-07-05T07:30:46.281Z,1016.77
2017-07-05T07:31:46.924Z,1016.70
2017-07-05T07:32:47.569Z,1016.73
2017-07-05T07:33:48.210Z,1016.78
2017-07-05T07:34:48.854Z,1016.76
2017-07-05T07:35:49.697Z,1016.73
2017-07-05T07:36:57.497Z,1016.74
2017-07-05T07:37:58.140Z,1016.77
2017-07-05T07:38:58.784Z,1016.69
2017-07-05T07:39:59.428Z,1016.73
2017-07-05T07:41:00.069Z,1016.68
2017-07-05T07:42:00.714Z,1016.69
2017-07-05T07:43:01.361Z,1016.73
2017-07-05T07:44:02.207Z,1016.67
2017-07-05T07:45:02.850Z,1016.62
2017-07-05T07:46:03.495Z,1016.69
2017-07-05T07:47:04.140Z,1016.70
2017-07-05T07:48:04.781Z,1016.67
2017-07-05T07:49:05.426Z,1016.66
2017-07-05T07:50:06.070Z,1016.62
2017-07-05T07:51:06.716Z,1016.68
2017-07-05T07:52:07.760Z,1016.71
2017-07-05T07:53:08.407Z,1016.64
2017-07-05T07:54:09.049Z,1016.65
2017-07-05T07:55:09.696Z,1016.64
2017-07-05T07:56:10.339Z,1016.69
2017-07-05T07:57:10.981Z,1016.71
2017-07-05T07:58:11.626Z,1016.67
2017-07-05T07:59:12.268Z,1016.72
2017-07-05T08:00:13.113Z,1016.74
2017-07-05T08:01:13.759Z,1016.78
2017-07-05T08:02:14.401Z,1016.72
2017-07-05T08:03:15.044Z,1016.75
2017-07-05T08:04:15.688Z,1016.73
2017-07-05T08:05:16.332Z,1016.71
2017-07-05T08:06:16.973Z,1016.81
2017-07-05T08:07:17.617Z,1016.80
2017-07-05T08:08:18.413Z,1016.80
2017-07-05T08:09:19.056Z,1016.80
2017-07-05T08:10:19.701Z,1016.77
2017-07-05T08:11:20.344Z,1016.78
2017-07-05T08:12:20.989Z,1016.87
2017-07-05T08:13:21.635Z,1016.74
2017-07-05T08:14:22.280Z,1016.81
2017-07-05T08:15:22.925Z,1016.81
2017-07-05T08:16:23.770Z,1016.76
2017-07-05T08:17:24.416Z,1016.75
2017-07-05T08:18:25.117Z,1016.77
2017-07-05T08:19:25.760Z,1016.75
2017-07-05T08:20:26.402Z,1016.78
2017-07-05T08:21:27.054Z,1016.76
2017-07-05T08:22:27.688Z,1016.73
2017-07-05T08:23:28.336Z,1016.71
2017-07-05T08:24:28.982Z,1016.78
2017-07-05T08:25:29.825Z,1016.74
2017-07-05T08:26:30.466Z,1016.70
2017-07-05T08:27:31.114Z,1016.77
2017-07-05T08:28:31.754Z,1016.74
2017-07-05T08:29:32.400Z,1016.73
2017-07-05T08:30:33.045Z,1016.76
2017-07-05T08:31:33.692Z,1016.73
2017-07-05T08:32:34.332Z,1016.70
2017-07-05T08:33:35.126Z,1016.71
2017-07-05T08:34:35.772Z,1016.75
2017-07-05T08:35:36.422Z,1016.70
2017-07-05T08:36:37.059Z,1016.70
2017-07-05T08:37:37.704Z,1016.65
2017-07-05T08:38:38.347Z,1016.71
2017-07-05T08:39:38.988Z,1016.77
2017-07-05T08:40:39.632Z,1016.74
2017-07-05T08:41:40.478Z,1016.72
2017-07-05T08:42:41.123Z,1016.79
2017-07-05T08:43:41.770Z,1016.78
2017-07-05T08:44:42.411Z,1016.82
2017-07-05T08:45:43.055Z,1016.82
2017-07-05T08:46:43.699Z,1016.89
2017-07-05T08:47:44.348Z,1016.88
2017-07-05T08:48:44.987Z,1016.84
2017-07-05T08:49:45.831Z,1016.76
2017-07-05T08:50:46.476Z,1016.73
2017-07-05T08:51:47.120Z,1016.72
2017-07-05T08:52:47.764Z,1016.80
2017-07-05T08:53:48.408Z,1016.69
2017-07-05T08:54:49.054Z,1016.79
2017-07-05T08:55:49.701Z,1016.76
2017-07-05T08:56:50.345Z,1016.75
2017-07-05T08:57:50.989Z,1016.77
2017-07-05T08:58:51.784Z,1016.76
2017-07-05T08:59:52.428Z,1016.74
2017-07-05T09:00:53.071Z,1016.76
2017-07-05T09:01:53.714Z,1016.76
2017-07-05T09:02:54.356Z,1016.76
2017-07-05T09:03:55.007Z,1016.89
2017-07-05T09:04:55.649Z,1016.88
2017-07-05T09:05:56.297Z,1016.85
2017-07-05T09:06:57.140Z,1016.78
2017-07-05T09:07:57.787Z,1016.80
2017-07-05T09:08:58.433Z,1016.85
2017-07-05T09:09:59.075Z,1016.75
2017-07-05T09:10:59.719Z,1016.85
2017-07-05T09:12:00.366Z,1016.94
2017-07-05T09:13:01.010Z,1016.89
2017-07-05T09:14:01.658Z,1016.85
2017-07-05T09:15:02.453Z,1016.79
2017-07-05T09:16:03.099Z,1016.77
2017-07-05T09:17:03.745Z,1016.80
2017-07-05T09:18:04.391Z,1016.74
2017-07-05T09:19:05.035Z,1016.75
2017-07-05T09:20:05.677Z,1016.82
2017-07-05T09:21:06.323Z,1016.76
2017-07-05T09:22:06.969Z,1016.83
2017-07-05T09:23:07.811Z,1016.78
2017-07-05T09:24:08.457Z,1016.86
2017-07-05T09:25:09.100Z,1016.88
2017-07-05T09:26:09.744Z,1016.78
2017-07-05T09:27:10.390Z,1016.79
2017-07-05T09:28:11.035Z,1016.82
2017-07-05T09:29:11.680Z,1016.84
2017-07-05T09:30:12.328Z,1016.85
2017-07-05T09:31:13.087Z,1016.89
2017-07-05T09:32:13.983Z,1016.82
2017-07-05T09:33:14.627Z,1016.88
2017-07-05T09:34:15.272Z,1016.91
2017-07-05T09:35:15.919Z,1016.95
2017-07-05T09:36:16.566Z,1016.95
2017-07-05T09:37:17.210Z,1016.85
2017-07-05T09:38:17.856Z,1016.93
2017-07-05T09:39:18.500Z,1016.93
2017-07-05T09:40:19.348Z,1016.97
2017-07-05T09:41:19.990Z,1016.95
2017-07-05T09:42:20.636Z,1016.94
2017-07-05T09:43:21.279Z,1016.94
2017-07-05T09:44:21.925Z,1016.91
2017-07-05T09:45:22.571Z,1016.89
2017-07-05T09:46:23.217Z,1016.86
2017-07-05T09:47:23.862Z,1016.77
2017-07-05T09:48:24.707Z,1016.93
2017-07-05T09:49:25.349Z,1016.85
2017-07-05T09:50:25.993Z,1016.97
2017-07-05T09:51:26.640Z,1017.02
2017-07-05T09:52:27.287Z,1017.02
2017-07-05T09:53:27.931Z,1017.03
2017-07-05T09:54:28.580Z,1017.07
2017-07-05T09:55:29.221Z,1017.13
2017-07-05T09:56:30.016Z,1017.05
2017-07-05T09:57:30.664Z,1017.14
2017-07-05T09:58:31.458Z,1017.04
2017-07-05T09:59:32.153Z,1016.99
2017-07-05T10:00:32.798Z,1016.98
2017-07-05T10:01:33.442Z,1016.97
2017-07-05T10:02:34.090Z,1017.09
2017-07-05T10:03:34.732Z,1017.05
2017-07-05T10:04:35.376Z,1017.12
2017-07-05T10:05:36.026Z,1017.19
2017-07-05T10:06:36.870Z,1017.13
2017-07-05T10:07:37.514Z,1017.10
2017-07-05T10:08:38.174Z,1017.10
2017-07-05T10:09:38.802Z,1017.10
2017-07-05T10:10:39.447Z,1017.06
2017-07-05T10:11:40.093Z,1017.11
2017-07-05T10:12:40.736Z,1017.05
2017-07-05T10:13:41.383Z,1017.16
2017-07-05T10:14:42.431Z,1017.20
2017-07-05T10:15:43.075Z,1017.18
2017-07-05T10:16:43.718Z,1017.26
2017-07-05T10:17:44.363Z,1017.21
2017-07-05T10:18:45.016Z,1017.19
2017-07-05T10:19:45.656Z,1017.15
2017-07-05T10:20:46.350Z,1017.16
2017-07-05T10:21:46.999Z,1017.16
2017-07-05T10:22:47.946Z,1017.11
2017-07-05T10:23:48.592Z,1017.08
2017-07-05T10:24:49.239Z,1017.10
2017-07-05T10:25:49.887Z,1017.14
2017-07-05T10:26:50.529Z,1017.18
2017-07-05T10:27:51.171Z,1017.22
2017-07-05T10:28:51.815Z,1017.26
2017-07-05T10:29:52.468Z,1017.29
2017-07-05T10:30:53.105Z,1017.30
2017-07-05T10:31:53.898Z,1017.35
2017-07-05T10:32:54.545Z,1017.32
2017-07-05T10:33:55.187Z,1017.30
2017-07-05T10:34:55.834Z,1017.29
2017-07-05T10:35:56.480Z,1017.26
2017-07-05T10:36:57.126Z,1017.26
2017-07-05T10:37:57.768Z,1017.26
2017-07-05T10:38:58.418Z,1017.23
2017-07-05T10:39:59.311Z,1017.25
2017-07-05T10:40:59.957Z,1017.30
2017-07-05T10:42:00.600Z,1017.31
2017-07-05T10:43:01.247Z,1017.23
2017-07-05T10:44:01.890Z,1017.26
2017-07-05T10:45:02.536Z,1017.32
2017-07-05T10:46:03.180Z,1017.36
2017-07-05T10:47:03.830Z,1017.41
2017-07-05T10:48:04.677Z,1017.45
2017-07-05T10:49:05.323Z,1017.38
2017-07-05T10:50:05.978Z,1017.37
2017-07-05T10:51:06.623Z,1017.35
2017-07-05T10:52:07.272Z,1017.39
2017-07-05T10:53:07.923Z,1017.31
2017-07-05T10:54:08.571Z,1017.21
2017-07-05T10:55:09.221Z,1017.22
2017-07-05T10:56:10.021Z,1017.24
2017-07-05T10:57:10.671Z,1017.32
2017-07-05T10:58:11.318Z,1017.39
2017-07-05T10:59:11.964Z,1017.49
2017-07-05T11:00:12.613Z,1017.45
2017-07-05T11:01:13.210Z,1017.54
2017-07-05T11:02:13.858Z,1017.58
2017-07-05T11:03:14.508Z,1017.49
2017-07-05T11:04:15.355Z,1017.68
2017-07-05T11:05:16.006Z,1017.57
2017-07-05T11:06:16.657Z,1017.66
2017-07-05T11:07:17.305Z,1017.55
2017-07-05T11:08:17.955Z,1017.56
2017-07-05T11:09:18.603Z,1017.52
2017-07-05T11:10:19.254Z,1017.52
2017-07-05T11:11:19.903Z,1017.47
2017-07-05T11:12:20.553Z,1017.47
2017-07-05T11:13:21.404Z,1017.41
2017-07-05T11:14:22.054Z,1017.43
2017-07-05T11:15:22.701Z,1017.40
2017-07-05T11:16:23.351Z,1017.35
2017-07-05T11:17:23.998Z,1017.32
2017-07-05T11:18:24.647Z,1017.29
2017-07-05T11:19:25.296Z,1017.22
2017-07-05T11:20:25.945Z,1017.19
2017-07-05T11:21:26.741Z,1017.25
2017-07-05T11:22:27.393Z,1017.31
2017-07-05T11:23:28.043Z,1017.29
2017-07-05T11:24:28.701Z,1017.35
2017-07-05T11:25:29.340Z,1017.42
2017-07-05T11:26:29.992Z,1017.52
2017-07-05T11:27:30.640Z,1017.49
2017-07-05T11:28:31.289Z,1017.53
2017-07-05T11:29:32.141Z,1017.50
2017-07-05T11:30:32.794Z,1017.35
2017-07-05T11:31:33.445Z,1017.43
2017-07-05T11:32:34.098Z,1017.42
2017-07-05T11:33:34.750Z,1017.46
2017-07-05T11:34:35.397Z,1017.47
2017-07-05T11:35:36.048Z,1017.56
2017-07-05T11:36:36.753Z,1017.65
2017-07-05T11:37:37.596Z,1017.52
2017-07-05T11:38:38.250Z,1017.72
2017-07-05T11:39:38.900Z,1017.65
2017-07-05T11:40:39.550Z,1017.51
2017-07-05T11:41:40.204Z,1017.58
2017-07-05T11:42:40.852Z,1017.49
2017-07-05T11:43:41.501Z,1017.44
2017-07-05T11:44:42.151Z,1017.47
2017-07-05T11:45:42.801Z,1017.36
2017-07-05T11:46:43.602Z,1017.48
2017-07-05T11:47:44.251Z,1017.46
2017-07-05T11:48:44.902Z,1017.42
2017-07-05T11:49:45.551Z,1017.54
2017-07-05T11:50:46.205Z,1017.50
2017-07-05T11:51:46.852Z,1017.68
2017-07-05T11:52:47.499Z,1017.67
2017-07-05T11:53:48.151Z,1017.75
2017-07-05T11:54:49.049Z,1017.75
2017-07-05T11:55:49.700Z,1017.75
2017-07-05T11:56:50.350Z,1017.68
2017-07-05T11:57:51.003Z,1017.67
2017-07-05T11:58:51.752Z,1017.66
2017-07-05T11:59:52.401Z,1017.69
2017-07-05T12:00:53.052Z,1017.69
2017-07-05T12:01:53.710Z,1017.60
2017-07-05T12:02:54.600Z,1017.64
2017-07-05T12:03:55.255Z,1017.60
2017-07-05T12:04:55.901Z,1017.63
2017-07-05T12:05:56.552Z,1017.56
2017-07-05T12:06:57.199Z,1017.47
2017-07-05T12:07:57.851Z,1017.57
2017-07-05T12:08:58.501Z,1017.55
2017-07-05T12:09:59.151Z,1017.58
2017-07-05T12:11:00.099Z,1017.62
2017-07-05T12:12:00.749Z,1017.65
2017-07-05T12:13:01.399Z,1017.68
2017-07-05T12:14:02.047Z,1017.72